createdAt,value
2023-03-31T00:00:48.853Z,76.71
2023-03-31T00:01:48.901Z,77.12
2023-03-31T00:02:49.019Z,77.12
2023-03-31T00:03:49.256Z,76.31
2023-03-31T00:04:49.124Z,76.71
2023-03-31T00:05:49.163Z,76.00
2023-03-31T00:06:49.208Z,76.51
2023-03-31T00:07:49.246Z,76.20
2023-03-31T00:08:49.282Z,76.40
2023-03-31T00:09:49.369Z,76.61
2023-03-31T00:10:49.418Z,76.31
2023-03-31T00:11:49.599Z,77.52
2023-03-31T00:12:49.512Z,76.81
2023-03-31T00:13:49.566Z,76.00
2023-03-31T00:14:49.629Z,76.00
2023-03-31T00:15:49.730Z,76.31
2023-03-31T00:16:49.793Z,77.42
2023-03-31T00:17:49.805Z,76.81
2023-03-31T00:18:49.874Z,77.42
2023-03-31T00:19:49.987Z,76.10
2023-03-31T00:20:49.996Z,77.42
2023-03-31T00:21:50.053Z,77.01
2023-03-31T00:22:50.138Z,76.61
2023-03-31T00:23:50.179Z,76.31
2023-03-31T00:24:50.250Z,77.42
2023-03-31T00:25:50.319Z,76.31
2023-03-31T00:26:50.360Z,76.00
2023-03-31T00:27:50.426Z,76.51
2023-03-31T00:28:50.498Z,76.61
2023-03-31T00:29:50.575Z,77.42
2023-03-31T00:30:50.621Z,76.00
2023-03-31T00:31:50.707Z,76.20
2023-03-31T00:32:50.761Z,77.72
2023-03-31T00:33:50.837Z,77.01
2023-03-31T00:34:50.952Z,76.91
2023-03-31T00:35:50.963Z,76.40
2023-03-31T00:36:50.986Z,77.22
2023-03-31T00:39:44.958Z,77.42
2023-03-31T00:40:46.040Z,76.91
2023-03-31T00:41:46.111Z,76.51
2023-03-31T00:42:46.173Z,75.90
2023-03-31T00:43:46.233Z,75.79
2023-03-31T00:44:46.305Z,76.51
2023-03-31T00:45:46.392Z,76.20
2023-03-31T00:46:46.466Z,76.81
2023-03-31T00:47:46.529Z,77.12
2023-03-31T00:48:46.563Z,77.42
2023-03-31T00:49:46.632Z,78.74
2023-03-31T00:50:46.702Z,78.44
2023-03-31T00:51:46.779Z,78.13
2023-03-31T00:52:46.843Z,77.22
2023-03-31T00:53:46.869Z,77.83
2023-03-31T00:54:46.910Z,77.22
2023-03-31T00:55:46.998Z,76.81
2023-03-31T00:56:47.059Z,77.83
2023-03-31T00:57:47.099Z,78.74
2023-03-31T00:58:47.159Z,78.23
2023-03-31T00:59:47.183Z,77.42
2023-03-31T01:00:47.260Z,76.71
2023-03-31T01:01:47.367Z,77.32
2023-03-31T01:02:47.437Z,76.71
2023-03-31T01:03:47.510Z,77.12
2023-03-31T01:04:47.520Z,77.52
2023-03-31T01:05:47.607Z,77.72
2023-03-31T01:06:47.650Z,77.72
2023-03-31T01:07:47.715Z,78.13
2023-03-31T01:08:47.764Z,79.25
2023-03-31T01:09:47.830Z,77.42
2023-03-31T01:10:47.981Z,78.53
2023-03-31T01:13:41.903Z,77.83
2023-03-31T01:14:42.969Z,78.23
2023-03-31T01:15:43.048Z,78.53
2023-03-31T01:16:43.154Z,77.12
2023-03-31T01:17:43.334Z,78.03
2023-03-31T01:18:43.228Z,77.42
2023-03-31T01:19:43.242Z,78.64
2023-03-31T01:24:02.652Z,78.03
2023-03-31T01:25:03.730Z,77.32
2023-03-31T01:26:03.973Z,78.53
2023-03-31T01:27:03.866Z,77.62
2023-03-31T01:28:03.926Z,76.81
2023-03-31T01:29:04.011Z,77.93
2023-03-31T01:30:04.075Z,76.91
2023-03-31T01:31:04.179Z,76.61
2023-03-31T01:32:04.172Z,77.01
2023-03-31T01:33:04.294Z,77.32
2023-03-31T01:34:04.355Z,76.20
2023-03-31T01:35:04.386Z,76.91
2023-03-31T01:36:04.713Z,78.33
2023-03-31T01:37:04.502Z,78.23
2023-03-31T01:38:04.641Z,76.31
2023-03-31T01:39:05.219Z,76.61
2023-03-31T01:40:04.729Z,77.83
2023-03-31T01:42:58.710Z,76.20
2023-03-31T01:43:59.780Z,76.61
2023-03-31T01:44:59.881Z,76.20
2023-03-31T01:46:00.000Z,77.12
2023-03-31T01:46:59.972Z,76.91
2023-03-31T01:48:00.063Z,77.52
2023-03-31T01:49:00.104Z,76.71
2023-03-31T01:50:00.200Z,76.20
2023-03-31T01:51:00.314Z,76.40
2023-03-31T01:52:00.293Z,76.61
2023-03-31T01:53:00.294Z,76.61
2023-03-31T01:54:00.352Z,75.70
2023-03-31T01:55:00.480Z,77.42
2023-03-31T01:56:00.506Z,76.91
2023-03-31T01:57:00.594Z,76.61
2023-03-31T01:58:00.634Z,76.40
2023-03-31T01:59:00.674Z,76.20
2023-03-31T02:00:00.740Z,76.40
2023-03-31T02:01:00.781Z,77.93
2023-03-31T02:02:00.922Z,77.52
2023-03-31T02:03:00.992Z,77.12
2023-03-31T02:04:01.078Z,76.51
2023-03-31T02:05:01.117Z,76.91
2023-03-31T02:06:01.150Z,77.12
2023-03-31T02:07:01.216Z,77.01
2023-03-31T02:08:01.288Z,76.40
2023-03-31T02:09:01.333Z,76.00
2023-03-31T02:10:01.409Z,76.51
2023-03-31T02:12:55.399Z,77.22
2023-03-31T02:15:50.453Z,76.51
2023-03-31T02:16:51.601Z,76.61
2023-03-31T02:17:51.580Z,76.31
2023-03-31T02:18:51.606Z,77.12
2023-03-31T02:19:51.684Z,77.01
2023-03-31T02:20:51.762Z,78.23
2023-03-31T02:21:51.769Z,78.53
2023-03-31T02:22:51.841Z,79.25
2023-03-31T02:23:51.888Z,77.62
2023-03-31T02:24:51.938Z,77.93
2023-03-31T02:25:52.024Z,77.83
2023-03-31T02:26:52.041Z,79.04
2023-03-31T02:27:52.100Z,78.44
2023-03-31T02:28:52.154Z,79.35
2023-03-31T02:29:52.227Z,77.22
2023-03-31T02:30:52.292Z,78.53
2023-03-31T02:31:52.506Z,78.44
2023-03-31T02:32:52.421Z,76.31
2023-03-31T02:33:52.454Z,77.93
2023-03-31T02:34:52.554Z,78.84
2023-03-31T02:35:52.656Z,78.74
2023-03-31T02:36:52.617Z,78.94
2023-03-31T02:37:52.693Z,79.04
2023-03-31T02:38:52.739Z,78.33
2023-03-31T02:39:52.784Z,77.52
2023-03-31T02:40:52.895Z,77.52
2023-03-31T02:41:52.896Z,77.62
2023-03-31T02:42:52.950Z,77.72
2023-03-31T02:43:53.009Z,77.42
2023-03-31T02:44:53.062Z,78.23
2023-03-31T02:45:53.259Z,77.62
2023-03-31T02:46:53.149Z,76.71
2023-03-31T02:47:53.251Z,77.93
2023-03-31T02:48:53.252Z,78.84
2023-03-31T02:49:53.321Z,79.14
2023-03-31T02:50:53.382Z,79.55
2023-03-31T02:51:53.430Z,77.52
2023-03-31T02:52:53.497Z,78.03
2023-03-31T02:53:53.545Z,77.83
2023-03-31T02:54:53.604Z,78.74
2023-03-31T02:55:53.730Z,77.42
2023-03-31T02:56:53.760Z,78.64
2023-03-31T02:57:53.780Z,78.64
2023-03-31T02:58:53.855Z,79.85
2023-03-31T02:59:53.898Z,78.44
2023-03-31T03:00:54.109Z,79.14
2023-03-31T03:01:54.024Z,78.64
2023-03-31T03:02:54.195Z,77.12
2023-03-31T03:03:54.089Z,77.22
2023-03-31T03:04:54.151Z,77.22
2023-03-31T03:05:54.219Z,79.04
2023-03-31T03:06:54.280Z,78.33
2023-03-31T03:07:54.359Z,77.72
2023-03-31T03:08:54.391Z,78.33
2023-03-31T03:09:54.456Z,80.46
2023-03-31T03:10:54.562Z,78.23
2023-03-31T03:11:54.552Z,78.94
2023-03-31T03:12:54.606Z,77.93
2023-03-31T03:13:54.676Z,77.32
2023-03-31T03:14:54.717Z,77.01
2023-03-31T03:15:54.786Z,76.37
2023-03-31T03:16:54.941Z,76.67
2023-03-31T03:17:54.975Z,76.37
2023-03-31T03:18:54.967Z,76.13
2023-03-31T03:19:55.042Z,74.91
2023-03-31T03:20:55.116Z,75.42
2023-03-31T03:21:55.168Z,74.00
2023-03-31T03:22:55.236Z,76.20
2023-03-31T03:23:55.287Z,74.57
2023-03-31T03:24:55.341Z,73.66
2023-03-31T03:25:55.406Z,74.07
2023-03-31T03:26:55.446Z,73.46
2023-03-31T03:27:55.505Z,73.25
2023-03-31T03:28:55.587Z,73.66
2023-03-31T03:29:55.624Z,73.56
2023-03-31T03:30:55.767Z,72.81
2023-03-31T03:31:56.044Z,73.22
2023-03-31T03:32:55.874Z,73.83
2023-03-31T03:33:55.898Z,73.73
2023-03-31T03:34:55.981Z,72.31
2023-03-31T03:35:56.041Z,72.52
2023-03-31T03:36:56.057Z,74.20
2023-03-31T03:37:56.120Z,73.39
2023-03-31T03:38:56.168Z,72.48
2023-03-31T03:39:56.221Z,72.88
2023-03-31T03:40:56.364Z,72.68
2023-03-31T03:41:56.326Z,72.78
2023-03-31T03:42:56.385Z,72.99
2023-03-31T03:43:56.451Z,73.09
2023-03-31T03:44:56.510Z,73.59
2023-03-31T03:45:56.603Z,73.29
2023-03-31T03:46:56.651Z,71.97
2023-03-31T03:47:56.737Z,72.78
2023-03-31T03:48:56.772Z,72.88
2023-03-31T03:49:56.829Z,74.30
2023-03-31T03:50:56.924Z,72.28
2023-03-31T03:51:56.937Z,72.17
2023-03-31T03:52:56.996Z,72.68
2023-03-31T03:53:57.063Z,72.28
2023-03-31T03:54:57.130Z,72.99
2023-03-31T03:55:57.234Z,72.08
2023-03-31T03:56:57.238Z,73.09
2023-03-31T03:57:57.302Z,72.68
2023-03-31T03:58:57.352Z,74.51
2023-03-31T03:59:57.441Z,72.38
2023-03-31T04:00:57.697Z,73.80
2023-03-31T04:01:57.560Z,73.49
2023-03-31T04:03:57.654Z,73.39
2023-03-31T04:04:57.764Z,72.28
2023-03-31T04:05:57.783Z,72.78
2023-03-31T04:06:57.836Z,72.58
2023-03-31T04:07:57.886Z,72.58
2023-03-31T04:08:57.940Z,72.28
2023-03-31T04:09:58.003Z,72.78
2023-03-31T04:10:58.075Z,72.68
2023-03-31T04:11:58.132Z,71.97
2023-03-31T04:12:58.200Z,72.88
2023-03-31T04:13:58.247Z,73.29
2023-03-31T04:16:52.246Z,73.39
2023-03-31T04:17:53.288Z,73.59
2023-03-31T04:20:47.296Z,72.78
2023-03-31T04:21:48.303Z,73.19
2023-03-31T04:22:48.396Z,73.49
2023-03-31T04:27:36.727Z,74.24
2023-03-31T04:28:37.815Z,74.24
2023-03-31T04:29:37.862Z,73.22
2023-03-31T04:30:37.900Z,73.63
2023-03-31T04:31:38.028Z,73.73
2023-03-31T04:32:38.075Z,74.84
2023-03-31T04:33:38.261Z,74.13
2023-03-31T04:34:38.185Z,74.95
2023-03-31T04:35:38.292Z,74.74
2023-03-31T04:36:38.320Z,75.25
2023-03-31T04:37:38.375Z,73.32
2023-03-31T04:38:38.471Z,73.43
2023-03-31T04:39:38.509Z,74.84
2023-03-31T04:40:38.560Z,75.15
2023-03-31T04:41:38.623Z,74.04
2023-03-31T04:42:38.691Z,74.74
2023-03-31T04:43:38.763Z,74.54
2023-03-31T04:44:38.789Z,73.83
2023-03-31T04:45:38.851Z,73.73
2023-03-31T04:46:38.884Z,74.84
2023-03-31T04:47:39.014Z,74.74
2023-03-31T04:48:39.008Z,74.24
2023-03-31T04:49:39.101Z,74.44
2023-03-31T04:50:39.153Z,75.45
2023-03-31T04:51:39.170Z,74.13
2023-03-31T04:52:39.225Z,74.84
2023-03-31T04:53:39.324Z,73.63
2023-03-31T04:54:39.343Z,73.43
2023-03-31T04:55:39.396Z,73.53
2023-03-31T04:56:39.460Z,75.04
2023-03-31T04:57:39.562Z,74.04
2023-03-31T04:58:39.645Z,74.33
2023-03-31T04:59:39.652Z,74.24
2023-03-31T05:00:39.721Z,74.33
2023-03-31T05:01:39.807Z,74.33
2023-03-31T05:02:39.969Z,75.76
2023-03-31T05:03:39.998Z,74.54
2023-03-31T05:04:40.133Z,75.15
2023-03-31T05:05:40.069Z,74.24
2023-03-31T05:06:40.122Z,73.22
2023-03-31T05:07:40.855Z,73.83
2023-03-31T05:08:40.343Z,72.17
2023-03-31T05:09:40.245Z,72.88
2023-03-31T05:10:40.351Z,73.39
2023-03-31T05:11:40.429Z,73.19
2023-03-31T05:12:40.449Z,73.59
2023-03-31T05:13:40.546Z,72.38
2023-03-31T05:14:40.628Z,72.38
2023-03-31T05:15:40.759Z,72.68
2023-03-31T05:16:40.796Z,72.48
2023-03-31T05:17:40.829Z,73.29
2023-03-31T05:18:41.310Z,72.38
2023-03-31T05:19:41.082Z,71.77
2023-03-31T05:20:40.944Z,73.90
2023-03-31T05:21:41.009Z,73.80
2023-03-31T05:22:43.331Z,72.28
2023-03-31T05:23:41.169Z,72.99
2023-03-31T05:24:41.254Z,72.38
2023-03-31T05:25:41.373Z,72.68
2023-03-31T05:26:41.402Z,72.08
2023-03-31T05:27:41.470Z,73.80
2023-03-31T05:28:41.570Z,72.78
2023-03-31T05:29:41.790Z,73.39
2023-03-31T05:30:41.682Z,72.78
2023-03-31T05:31:41.747Z,72.58
2023-03-31T05:32:41.828Z,72.28
2023-03-31T05:33:42.405Z,73.69
2023-03-31T05:34:42.075Z,73.69
2023-03-31T05:35:42.118Z,72.78
2023-03-31T05:36:42.203Z,73.39
2023-03-31T05:37:42.078Z,72.58
2023-03-31T05:38:42.402Z,73.90
2023-03-31T05:39:42.298Z,74.00
2023-03-31T05:40:42.478Z,73.09
2023-03-31T05:41:42.298Z,72.48
2023-03-31T05:42:42.370Z,72.99
2023-03-31T05:43:42.434Z,72.78
2023-03-31T05:44:42.521Z,72.88
2023-03-31T05:45:42.574Z,72.48
2023-03-31T05:46:42.709Z,72.68
2023-03-31T05:47:42.884Z,72.08
2023-03-31T05:48:42.736Z,73.90
2023-03-31T05:49:42.828Z,73.39
2023-03-31T05:50:42.848Z,73.69
2023-03-31T05:51:43.121Z,72.28
2023-03-31T05:52:43.060Z,73.90
2023-03-31T05:53:43.047Z,74.51
2023-03-31T05:54:43.126Z,72.08
2023-03-31T05:57:31.910Z,73.09
2023-03-31T05:58:30.946Z,73.69
2023-03-31T06:04:57.168Z,73.80
2023-03-31T06:05:57.632Z,73.39
2023-03-31T06:06:57.689Z,73.19
2023-03-31T06:07:57.931Z,73.19
2023-03-31T06:13:38.784Z,73.09
2023-03-31T06:14:39.795Z,72.88
2023-03-31T06:15:39.886Z,73.69
2023-03-31T06:16:39.943Z,73.49
2023-03-31T06:17:40.005Z,73.59
2023-03-31T06:18:40.270Z,73.90
2023-03-31T06:19:40.100Z,74.00
2023-03-31T06:20:40.165Z,72.78
2023-03-31T06:21:40.321Z,73.09
2023-03-31T06:22:40.350Z,73.09
2023-03-31T06:23:40.340Z,72.78
2023-03-31T06:24:40.495Z,72.99
2023-03-31T06:25:50.877Z,74.00
2023-03-31T06:26:40.639Z,72.99
2023-03-31T06:27:40.723Z,72.58
2023-03-31T06:28:40.818Z,73.19
2023-03-31T06:29:41.762Z,72.99
2023-03-31T06:30:41.947Z,72.48
2023-03-31T06:31:41.296Z,72.99
2023-03-31T06:34:18.514Z,73.09
2023-03-31T06:35:17.706Z,73.39
2023-03-31T06:36:17.991Z,73.80
2023-03-31T06:37:18.056Z,74.10
2023-03-31T06:38:19.428Z,73.80
2023-03-31T06:39:27.685Z,72.78
2023-03-31T06:40:18.275Z,72.88
2023-03-31T06:41:18.262Z,72.88
2023-03-31T06:42:18.301Z,72.88
2023-03-31T06:43:18.333Z,73.59
2023-03-31T06:44:18.358Z,72.48
2023-03-31T06:45:18.393Z,72.58
2023-03-31T06:46:18.798Z,72.78
2023-03-31T06:47:18.550Z,72.38
2023-03-31T06:48:20.396Z,73.09
2023-03-31T06:49:18.957Z,72.28
2023-03-31T06:50:18.699Z,73.59
2023-03-31T06:51:19.088Z,72.68
2023-03-31T06:52:19.061Z,72.48
2023-03-31T06:53:18.992Z,72.28
2023-03-31T06:54:19.913Z,71.97
2023-03-31T06:55:19.285Z,72.28
2023-03-31T06:56:19.211Z,72.78
2023-03-31T06:57:19.911Z,71.67
2023-03-31T06:58:19.850Z,72.78
2023-03-31T06:59:19.418Z,71.88
2023-03-31T07:00:22.346Z,72.88
2023-03-31T07:01:19.444Z,73.39
2023-03-31T07:02:19.566Z,72.99
2023-03-31T07:03:19.692Z,72.38
2023-03-31T07:04:19.852Z,73.05
2023-03-31T07:05:21.820Z,72.88
2023-03-31T07:06:20.596Z,74.10
2023-03-31T07:07:19.683Z,73.19
2023-03-31T07:08:19.753Z,72.08
2023-03-31T07:09:21.071Z,72.08
2023-03-31T07:10:20.778Z,73.69
2023-03-31T07:11:21.125Z,72.58
2023-03-31T07:12:20.123Z,73.39
2023-03-31T07:13:20.081Z,72.68
2023-03-31T07:14:20.189Z,72.38
2023-03-31T07:15:20.755Z,72.08
2023-03-31T07:16:20.337Z,71.97
2023-03-31T07:17:20.567Z,72.48
2023-03-31T07:18:21.233Z,74.10
2023-03-31T07:19:20.465Z,72.38
2023-03-31T07:20:20.608Z,72.58
2023-03-31T07:21:20.559Z,73.39
2023-03-31T07:22:21.457Z,72.58
2023-03-31T07:23:21.089Z,71.77
2023-03-31T07:24:20.873Z,72.04
2023-03-31T07:25:20.792Z,72.48
2023-03-31T07:26:19.887Z,72.58
2023-03-31T07:27:22.037Z,72.58
2023-03-31T07:28:21.609Z,71.37
2023-03-31T07:29:21.005Z,72.85
2023-03-31T07:30:21.184Z,72.38
2023-03-31T07:31:21.413Z,71.94
2023-03-31T07:32:22.769Z,72.85
2023-03-31T07:33:21.200Z,72.75
2023-03-31T07:34:21.301Z,72.55
2023-03-31T07:35:21.342Z,72.55
2023-03-31T07:36:22.629Z,73.25
2023-03-31T07:37:21.912Z,71.47
2023-03-31T07:38:21.537Z,73.90
2023-03-31T07:39:22.384Z,73.09
2023-03-31T07:40:21.696Z,73.39
2023-03-31T07:41:21.844Z,73.09
2023-03-31T07:42:22.001Z,73.19
2023-03-31T07:43:22.533Z,73.19
2023-03-31T07:44:21.978Z,72.24
2023-03-31T07:45:22.164Z,73.05
2023-03-31T07:46:22.135Z,73.49
2023-03-31T07:47:22.099Z,72.88
2023-03-31T07:48:22.691Z,72.95
2023-03-31T07:49:22.214Z,73.36
2023-03-31T07:50:22.885Z,73.46
2023-03-31T07:51:22.372Z,73.25
2023-03-31T07:52:23.386Z,73.25
2023-03-31T07:53:22.474Z,71.94
2023-03-31T07:54:22.584Z,72.55
2023-03-31T07:55:22.633Z,71.94
2023-03-31T07:56:22.645Z,72.75
2023-03-31T07:57:22.771Z,71.50
2023-03-31T07:58:22.811Z,72.95
2023-03-31T07:59:22.820Z,71.20
2023-03-31T08:03:16.014Z,71.50
2023-03-31T08:04:17.047Z,71.60
2023-03-31T08:05:18.995Z,71.00
2023-03-31T08:10:25.838Z,72.81
2023-03-31T08:14:27.259Z,70.86
2023-03-31T08:15:18.929Z,71.70
2023-03-31T08:16:19.073Z,70.79
2023-03-31T08:17:19.056Z,70.86
2023-03-31T08:21:12.028Z,69.85
2023-03-31T08:22:13.129Z,69.51
2023-03-31T08:23:13.218Z,69.21
2023-03-31T08:24:13.213Z,68.80
2023-03-31T08:25:13.304Z,68.91
2023-03-31T08:26:15.786Z,69.11
2023-03-31T08:27:13.446Z,68.60
2023-03-31T08:28:13.464Z,69.01
2023-03-31T08:29:14.592Z,68.98
2023-03-31T08:34:54.622Z,60.69
2023-03-31T08:35:55.640Z,55.33
2023-03-31T08:36:55.652Z,51.75
2023-03-31T08:37:55.732Z,51.28
2023-03-31T08:38:55.784Z,47.35
2023-03-31T08:39:55.999Z,48.07
2023-03-31T08:40:56.720Z,49.08
2023-03-31T08:41:56.010Z,48.27
2023-03-31T08:42:56.024Z,46.14
2023-03-31T08:43:56.179Z,49.34
2023-03-31T08:44:56.271Z,45.98
2023-03-31T08:45:56.291Z,44.95
2023-03-31T08:46:58.056Z,43.90
2023-03-31T08:47:57.187Z,41.47
2023-03-31T08:48:56.379Z,40.62
2023-03-31T08:49:56.458Z,39.03
2023-03-31T08:50:56.531Z,38.36
2023-03-31T08:51:56.594Z,40.11
2023-03-31T08:52:56.648Z,39.05
2023-03-31T08:53:56.707Z,40.35
2023-03-31T08:54:56.842Z,39.15
2023-03-31T08:55:56.846Z,38.34
2023-03-31T08:56:56.928Z,37.46
2023-03-31T08:57:56.915Z,41.77
2023-03-31T08:58:57.768Z,37.23
2023-03-31T08:59:57.871Z,39.56
2023-03-31T09:00:57.133Z,38.43
2023-03-31T09:01:57.277Z,36.45
2023-03-31T09:03:00.012Z,36.84
2023-03-31T09:03:57.379Z,38.10
2023-03-31T09:04:57.373Z,37.79
2023-03-31T09:06:00.534Z,33.95
2023-03-31T09:06:57.457Z,36.40
2023-03-31T09:07:57.498Z,37.87
2023-03-31T09:08:57.548Z,34.05
2023-03-31T09:09:57.806Z,34.52
2023-03-31T09:10:57.694Z,35.42
2023-03-31T09:11:57.764Z,37.95
2023-03-31T09:12:57.815Z,35.32
2023-03-31T09:13:57.893Z,36.08
2023-03-31T09:14:57.952Z,37.85
2023-03-31T09:15:58.009Z,35.99
2023-03-31T09:16:58.164Z,38.14
2023-03-31T09:17:58.159Z,34.72
2023-03-31T09:18:58.183Z,35.30
2023-03-31T09:19:58.271Z,35.32
2023-03-31T09:20:58.300Z,36.57
2023-03-31T09:21:58.326Z,34.74
2023-03-31T09:22:58.436Z,34.72
2023-03-31T09:23:59.245Z,34.23
2023-03-31T09:24:58.567Z,36.87
2023-03-31T09:25:58.585Z,35.28
2023-03-31T09:26:59.409Z,35.09
2023-03-31T09:27:58.708Z,34.23
2023-03-31T09:28:58.760Z,33.65
2023-03-31T09:29:58.836Z,33.69
2023-03-31T09:30:58.949Z,36.96
2023-03-31T09:31:59.008Z,37.81
2023-03-31T09:32:59.098Z,35.24
2023-03-31T09:33:59.127Z,35.91
2023-03-31T09:34:59.218Z,34.84
2023-03-31T09:35:59.263Z,34.45
2023-03-31T09:37:00.385Z,34.94
2023-03-31T09:37:59.468Z,35.73
2023-03-31T09:38:59.848Z,37.26
2023-03-31T09:39:59.529Z,33.25
2023-03-31T09:40:59.632Z,33.74
2023-03-31T09:42:00.198Z,34.05
2023-03-31T09:42:59.951Z,33.75
2023-03-31T09:43:59.783Z,34.83
2023-03-31T09:44:59.876Z,34.47
2023-03-31T09:46:08.558Z,34.08
2023-03-31T09:47:00.303Z,33.77
2023-03-31T09:48:00.029Z,36.41
2023-03-31T09:49:00.049Z,34.64
2023-03-31T09:50:00.348Z,34.33
2023-03-31T09:51:00.170Z,34.59
2023-03-31T09:52:00.214Z,37.01
2023-03-31T09:53:00.288Z,36.42
2023-03-31T09:54:00.370Z,36.62
2023-03-31T09:55:00.432Z,34.72
2023-03-31T09:56:00.489Z,36.34
2023-03-31T09:57:00.640Z,36.22
2023-03-31T09:58:00.614Z,38.04
2023-03-31T09:59:00.705Z,42.57
2023-03-31T10:00:00.840Z,45.19
2023-03-31T10:01:00.943Z,47.69
2023-03-31T10:02:00.946Z,49.68
2023-03-31T10:03:00.975Z,52.04
2023-03-31T10:04:01.045Z,52.59
2023-03-31T10:05:01.075Z,54.44
2023-03-31T10:06:01.125Z,54.87
2023-03-31T10:07:01.201Z,55.80
2023-03-31T10:10:54.278Z,57.46
2023-03-31T10:11:55.582Z,57.26
2023-03-31T10:12:55.393Z,57.96
2023-03-31T10:13:55.455Z,59.26
2023-03-31T10:14:55.540Z,56.24
2023-03-31T10:15:55.643Z,49.51
2023-03-31T10:16:55.651Z,46.24
2023-03-31T10:17:55.851Z,48.02
2023-03-31T10:18:55.790Z,49.51
2023-03-31T10:22:48.844Z,55.37
2023-03-31T10:23:56.148Z,55.85
2023-03-31T10:24:49.982Z,58.29
2023-03-31T10:28:43.041Z,58.00
2023-03-31T10:34:25.015Z,46.14
2023-03-31T10:35:26.104Z,45.45
2023-03-31T10:36:26.117Z,43.24
2023-03-31T10:37:26.190Z,41.16
2023-03-31T10:38:26.223Z,40.42
2023-03-31T10:39:26.556Z,40.01
2023-03-31T10:40:26.320Z,44.45
2023-03-31T10:41:26.450Z,46.14
2023-03-31T10:42:26.432Z,48.32
2023-03-31T10:43:26.484Z,50.30
2023-03-31T10:44:27.321Z,52.57
2023-03-31T10:45:36.468Z,52.59
2023-03-31T10:46:26.730Z,52.52
2023-03-31T10:47:26.750Z,53.94
2023-03-31T10:48:26.803Z,53.89
2023-03-31T10:49:26.857Z,51.92
2023-03-31T10:50:26.956Z,50.97
2023-03-31T10:51:26.952Z,51.37
2023-03-31T10:52:27.575Z,48.27
2023-03-31T10:53:27.083Z,41.67
2023-03-31T10:54:27.156Z,36.80
2023-03-31T10:55:27.181Z,37.88
2023-03-31T10:56:27.340Z,36.21
2023-03-31T10:57:27.361Z,41.38
2023-03-31T10:58:27.405Z,40.35
2023-03-31T10:59:27.441Z,35.77
2023-03-31T11:00:27.556Z,37.15
2023-03-31T11:01:27.630Z,36.74
2023-03-31T11:02:27.794Z,37.35
2023-03-31T11:03:30.646Z,38.85
2023-03-31T11:04:27.712Z,40.80
2023-03-31T11:05:27.784Z,41.65
2023-03-31T11:06:27.886Z,45.52
2023-03-31T11:07:27.928Z,41.12
2023-03-31T11:08:27.978Z,42.35
2023-03-31T11:09:28.062Z,44.87
2023-03-31T11:10:28.344Z,44.56
2023-03-31T11:11:28.176Z,44.81
2023-03-31T11:12:28.252Z,44.85
2023-03-31T11:13:28.316Z,43.54
2023-03-31T11:14:30.832Z,47.33
2023-03-31T11:15:29.045Z,47.83
2023-03-31T11:16:28.697Z,50.70
2023-03-31T11:17:28.551Z,49.42
2023-03-31T11:18:28.631Z,49.77
2023-03-31T11:19:28.920Z,50.20
2023-03-31T11:20:30.788Z,50.99
2023-03-31T11:21:28.784Z,52.80
2023-03-31T11:22:28.856Z,51.50
2023-03-31T11:23:28.926Z,52.42
2023-03-31T11:24:29.006Z,51.20
2023-03-31T11:25:29.119Z,55.02
2023-03-31T11:26:30.786Z,49.49
2023-03-31T11:27:29.226Z,52.62
2023-03-31T11:28:29.276Z,54.91
2023-03-31T11:29:29.289Z,55.56
2023-03-31T11:30:29.382Z,56.57
2023-03-31T11:31:29.430Z,55.87
2023-03-31T11:32:31.306Z,54.96
2023-03-31T11:33:29.530Z,55.46
2023-03-31T11:34:29.605Z,56.47
2023-03-31T11:35:30.064Z,53.65
2023-03-31T11:36:29.733Z,58.41
2023-03-31T11:37:29.797Z,58.31
2023-03-31T11:38:29.869Z,54.79
2023-03-31T11:39:29.933Z,59.11
2023-03-31T11:40:30.156Z,59.42
2023-03-31T11:41:30.076Z,59.84
2023-03-31T11:42:30.119Z,59.84
2023-03-31T11:43:30.207Z,60.15
2023-03-31T11:44:30.276Z,59.95
2023-03-31T11:45:30.352Z,60.55
2023-03-31T11:46:30.485Z,60.65
2023-03-31T11:47:30.493Z,60.68
2023-03-31T11:48:30.579Z,56.22
2023-03-31T11:49:30.656Z,60.45
2023-03-31T11:50:30.735Z,60.85
2023-03-31T11:51:31.551Z,60.88
2023-03-31T11:52:30.843Z,60.88
2023-03-31T11:53:30.869Z,56.22
2023-03-31T11:54:30.932Z,55.99
2023-03-31T11:55:31.018Z,57.98
2023-03-31T11:56:31.089Z,58.88
2023-03-31T11:57:31.253Z,58.07
2023-03-31T11:58:37.376Z,58.38
2023-03-31T11:59:31.244Z,57.88
2023-03-31T12:00:31.304Z,58.91
2023-03-31T12:01:31.489Z,59.72
2023-03-31T12:02:31.473Z,60.25
2023-03-31T12:03:31.445Z,59.64
2023-03-31T12:04:31.522Z,58.44
2023-03-31T12:05:31.632Z,59.01
2023-03-31T12:06:31.627Z,58.34
2023-03-31T12:07:31.714Z,59.75
2023-03-31T12:08:31.790Z,59.55
2023-03-31T12:09:32.610Z,60.25
2023-03-31T12:13:41.250Z,61.18
2023-03-31T12:14:42.307Z,60.98
2023-03-31T12:15:42.409Z,61.08
2023-03-31T12:16:42.451Z,61.18
2023-03-31T12:17:42.417Z,61.18
2023-03-31T12:18:42.501Z,60.98
2023-03-31T12:19:42.524Z,61.18
2023-03-31T12:20:42.652Z,61.18
2023-03-31T12:21:42.954Z,61.08
2023-03-31T12:22:44.364Z,61.08
2023-03-31T12:23:42.864Z,61.39
2023-03-31T12:24:43.508Z,61.61
2023-03-31T12:25:42.924Z,61.32
2023-03-31T12:26:42.929Z,61.49
2023-03-31T12:27:43.059Z,61.72
2023-03-31T12:28:43.044Z,61.72
2023-03-31T12:29:43.149Z,61.61
2023-03-31T12:30:43.176Z,61.41
2023-03-31T12:31:43.313Z,61.59
2023-03-31T12:32:43.321Z,61.72
2023-03-31T12:33:43.375Z,62.02
2023-03-31T12:34:43.452Z,62.12
2023-03-31T12:35:43.540Z,62.22
2023-03-31T12:36:43.564Z,62.32
2023-03-31T12:37:43.634Z,62.22
2023-03-31T12:38:43.684Z,62.43
2023-03-31T12:39:43.734Z,62.43
2023-03-31T12:40:43.814Z,62.52
2023-03-31T12:41:43.848Z,62.22
2023-03-31T12:42:43.904Z,62.70
2023-03-31T12:43:43.989Z,62.60
2023-03-31T12:44:44.042Z,62.70
2023-03-31T12:45:44.093Z,62.90
2023-03-31T12:46:44.187Z,62.80
2023-03-31T12:47:44.254Z,62.90
2023-03-31T12:48:44.540Z,63.00
2023-03-31T12:49:44.392Z,62.80
2023-03-31T12:50:44.448Z,63.30
2023-03-31T12:51:44.541Z,63.30
2023-03-31T12:52:44.623Z,63.20
2023-03-31T12:53:44.646Z,63.50
2023-03-31T12:54:44.857Z,63.20
2023-03-31T12:55:44.764Z,63.30
2023-03-31T12:58:55.093Z,64.31
2023-03-31T12:59:56.164Z,63.60
2023-03-31T13:00:56.257Z,63.10
2023-03-31T13:01:56.326Z,63.90
2023-03-31T13:02:56.374Z,63.70
2023-03-31T13:03:56.417Z,63.57
2023-03-31T13:04:56.483Z,63.37
2023-03-31T13:05:56.546Z,63.57
2023-03-31T13:06:56.605Z,64.11
2023-03-31T13:07:56.681Z,63.60
2023-03-31T13:08:56.752Z,63.57
2023-03-31T13:09:56.834Z,63.98
2023-03-31T13:15:04.121Z,63.78
2023-03-31T13:16:05.146Z,63.78
2023-03-31T13:17:05.373Z,63.87
2023-03-31T13:18:05.286Z,64.07
2023-03-31T13:19:05.342Z,63.98
2023-03-31T13:20:07.642Z,64.48
2023-03-31T13:21:06.123Z,64.07
2023-03-31T13:22:05.750Z,62.97
2023-03-31T13:23:06.291Z,64.48
2023-03-31T13:24:05.851Z,64.78
2023-03-31T13:25:05.724Z,64.48
2023-03-31T13:26:06.018Z,64.38
2023-03-31T13:27:04.774Z,64.58
2023-03-31T13:28:05.806Z,64.69
2023-03-31T13:29:05.854Z,64.78
2023-03-31T13:30:05.970Z,64.48
2023-03-31T13:31:06.010Z,65.09
2023-03-31T13:32:06.138Z,64.98
2023-03-31T13:33:06.201Z,64.38
2023-03-31T13:34:06.237Z,64.58
2023-03-31T13:35:06.306Z,64.98
2023-03-31T13:36:06.792Z,64.89
2023-03-31T13:37:07.310Z,64.89
2023-03-31T13:38:06.524Z,64.98
2023-03-31T13:39:06.536Z,64.89
2023-03-31T13:40:06.642Z,62.16
2023-03-31T13:41:06.627Z,59.95
2023-03-31T13:42:06.859Z,58.61
2023-03-31T13:43:06.749Z,60.85
2023-03-31T13:44:06.791Z,61.76
2023-03-31T13:45:07.038Z,62.26
2023-03-31T13:46:07.088Z,63.57
2023-03-31T13:47:07.062Z,63.17
2023-03-31T13:48:07.194Z,63.17
2023-03-31T13:49:07.672Z,61.25
2023-03-31T13:50:07.228Z,62.87
2023-03-31T13:51:07.265Z,62.97
2023-03-31T13:52:07.309Z,63.07
2023-03-31T13:53:07.393Z,63.37
2023-03-31T13:54:07.461Z,62.06
2023-03-31T13:55:10.925Z,62.66
2023-03-31T13:56:07.811Z,61.66
2023-03-31T13:57:07.775Z,63.07
2023-03-31T13:58:24.706Z,62.77
2023-03-31T13:59:07.765Z,62.66
2023-03-31T14:00:09.420Z,60.05
2023-03-31T14:01:08.007Z,61.05
2023-03-31T14:02:08.055Z,62.46
2023-03-31T14:03:08.176Z,60.96
2023-03-31T14:04:08.021Z,62.66
2023-03-31T14:05:08.128Z,62.97
2023-03-31T14:06:08.326Z,60.45
2023-03-31T14:07:08.290Z,62.87
2023-03-31T14:08:08.252Z,60.75
2023-03-31T14:09:08.320Z,60.45